Time;durP1;ratioP1;P1;durP2;ratioP2;P2;SDS_P1;SDS_P2;PMS_P1;PMS_P2;Temp;Humidity;BMP_temperature;BMP_pressure;BME280_temperature;BME280_humidity;BME280_pressure;Samples;Min_cycle;Max_cycle;Signal;HPM_P1;HPM_P2
2022/12/15 00:39:05;;;;;;;24.47;11.67;;;-0.30;99.90;;;;;;5114592;28;20071;-73
2022/12/15 00:41:31;;;;;;;23.63;11.27;;;-0.20;99.90;;;;;;5115095;28;20063;-73
2022/12/15 00:43:56;;;;;;;24.43;11.00;;;-0.30;99.90;;;;;;5114463;28;20054;-77
2022/12/15 00:50:50;;;;;;;23.53;10.97;;;-0.40;99.90;;;;;;5114134;28;20046;-74
2022/12/15 01:21:57;;;;;;;22.50;10.70;;;-0.30;99.90;;;;;;5114245;28;20487;-75
2022/12/15 01:24:23;;;;;;;25.53;11.27;;;-0.40;99.90;;;;;;5112789;28;20227;-73
2022/12/15 01:26:48;;;;;;;22.50;10.97;;;-0.40;99.90;;;;;;5114068;28;20020;-73
2022/12/15 01:29:14;;;;;;;24.50;11.47;;;-0.40;99.90;;;;;;5112130;28;20129;-73
2022/12/15 01:31:40;;;;;;;25.40;10.77;;;-0.30;99.90;;;;;;5114119;28;20092;-73
2022/12/15 01:34:06;;;;;;;23.40;10.87;;;-0.30;99.90;;;;;;5112547;28;20053;-73
2022/12/15 01:36:31;;;;;;;20.43;10.20;;;-0.30;99.90;;;;;;5113070;28;20027;-73
2022/12/15 01:38:57;;;;;;;24.67;10.87;;;-0.30;99.90;;;;;;5114173;28;20032;-77
2022/12/15 01:41:23;;;;;;;25.23;11.13;;;-0.30;99.90;;;;;;5112249;28;20032;-74
2022/12/15 01:43:48;;;;;;;22.90;10.97;;;-0.30;99.90;;;;;;5113917;27;20027;-73
2022/12/15 01:46:23;;;;;;;25.40;10.83;;;-0.30;99.90;;;;;;5113381;28;20035;-74
2022/12/15 01:49:13;;;;;;;21.27;10.43;;;-0.30;99.90;;;;;;5113847;28;20077;-73
2022/12/15 01:51:43;;;;;;;25.93;11.33;;;-0.20;99.90;;;;;;5113790;28;20418;-73
2022/12/15 01:54:15;;;;;;;26.47;12.20;;;-0.30;99.90;;;;;;5112230;28;20024;-73
2022/12/15 01:56:45;;;;;;;24.85;11.15;;;-0.20;99.90;;;;;;5114027;28;20027;-73
2022/12/15 01:59:18;;;;;;;25.20;10.93;;;-0.20;99.90;;;;;;5113175;28;20039;-74
2022/12/15 02:01:44;;;;;;;23.93;10.23;;;-0.20;99.90;;;;;;5112607;28;20039;-73
2022/12/15 02:04:10;;;;;;;25.00;11.60;;;-0.20;99.90;;;;;;5111893;28;20023;-74
2022/12/15 02:06:36;;;;;;;25.97;11.63;;;-0.20;99.90;;;;;;5112370;28;20065;-73
2022/12/15 02:09:03;;;;;;;22.13;10.50;;;-0.20;99.90;;;;;;5111614;28;20031;-77
2022/12/15 02:11:35;;;;;;;28.77;12.03;;;-0.20;99.90;;;;;;5113788;28;20027;-73
2022/12/15 02:14:06;;;;;;;28.77;12.02;;;-0.20;99.90;;;;;;5113224;28;20099;-78
2022/12/15 02:16:49;;;;;;;18.17;8.70;;;-0.20;99.90;;;;;;5113296;28;20431;-74
2022/12/15 02:19:20;;;;;;;26.33;11.97;;;-0.20;99.90;;;;;;5111586;28;20034;-73
2022/12/15 02:21:57;;;;;;;30.98;12.70;;;-0.20;99.90;;;;;;5111902;28;20081;-73
2022/12/15 02:24:54;;;;;;;28.93;11.23;;;-0.20;99.90;;;;;;5111229;28;20092;-73
2022/12/15 02:27:24;;;;;;;26.20;11.37;;;-0.20;99.90;;;;;;5111308;28;20499;-73
2022/12/15 02:30:15;;;;;;;24.23;11.47;;;-0.20;99.90;;;;;;5113050;28;20039;-73
2022/12/15 02:33:07;;;;;;;25.77;11.40;;;-0.30;99.90;;;;;;5112068;28;20023;-73
2022/12/15 02:35:55;;;;;;;28.92;11.85;;;-0.30;99.90;;;;;;5112078;28;20031;-73
2022/12/15 02:38:32;;;;;;;26.20;11.60;;;-0.30;99.90;;;;;;5111258;28;20023;-73
2022/12/15 02:41:03;;;;;;;25.43;11.33;;;-0.40;99.90;;;;;;5111862;28;20046;-73
2022/12/15 02:43:33;;;;;;;26.33;11.30;;;-0.40;99.90;;;;;;5113090;28;20537;-73
2022/12/15 02:46:20;;;;;;;24.83;11.40;;;-0.40;99.90;;;;;;5112023;28;20028;-73
2022/12/15 02:49:13;;;;;;;25.20;10.57;;;-0.40;99.90;;;;;;5113109;28;20024;-73
2022/12/15 02:51:51;;;;;;;27.30;12.43;;;-0.40;99.90;;;;;;5111847;28;20114;-74
2022/12/15 02:54:20;;;;;;;30.17;11.57;;;-0.30;99.90;;;;;;5111039;28;20503;-73
2022/12/15 02:57:12;;;;;;;23.23;11.60;;;-0.30;99.90;;;;;;5111759;28;20080;-73
2022/12/15 02:59:54;;;;;;;25.02;10.77;;;-0.30;99.90;;;;;;5111409;28;20032;-73
2022/12/15 03:02:23;;;;;;;26.48;11.45;;;-0.30;99.90;;;;;;5112210;28;20027;-73
2022/12/15 03:04:49;;;;;;;27.47;11.27;;;-0.40;99.90;;;;;;5111595;28;20035;-73
2022/12/15 03:07:14;;;;;;;20.93;11.17;;;-0.30;99.90;;;;;;5110877;28;20441;-73
2022/12/15 03:09:40;;;;;;;25.93;10.87;;;-0.30;99.90;;;;;;5112345;28;20032;-73
2022/12/15 03:12:06;;;;;;;21.53;10.83;;;-0.30;99.90;;;;;;5112506;28;20461;-76
2022/12/15 03:14:32;;;;;;;24.97;11.27;;;-0.30;99.90;;;;;;5111685;28;20024;-73
2022/12/15 03:16:58;;;;;;;27.70;12.07;;;-0.30;99.90;;;;;;5110961;28;20059;-73
2022/12/15 03:19:24;;;;;;;26.07;11.47;;;-0.30;99.90;;;;;;5110822;28;20031;-73
2022/12/15 03:21:50;;;;;;;23.97;10.53;;;-0.30;99.90;;;;;;5111681;28;20046;-73
2022/12/15 03:24:16;;;;;;;20.87;11.10;;;-0.30;99.90;;;;;;5110998;28;20028;-74
2022/12/15 03:26:42;;;;;;;27.80;12.60;;;-0.30;99.90;;;;;;5111664;28;20073;-74
2022/12/15 03:29:08;;;;;;;28.13;12.27;;;-0.40;99.90;;;;;;5111048;28;20423;-74
2022/12/15 03:31:34;;;;;;;27.47;12.37;;;-0.40;99.90;;;;;;5111855;28;20031;-73
2022/12/15 03:33:59;;;;;;;25.33;12.00;;;-0.40;99.90;;;;;;5111333;28;20114;-73
2022/12/15 03:36:25;;;;;;;26.10;12.57;;;-0.30;99.90;;;;;;5110765;28;20694;-74
2022/12/15 03:38:51;;;;;;;22.17;12.00;;;-0.30;99.90;;;;;;5111482;28;20027;-74
2022/12/15 03:41:19;;;;;;;24.93;11.53;;;-0.30;99.90;;;;;;5110918;28;20066;-74
2022/12/15 03:43:47;;;;;;;28.57;12.53;;;-0.30;99.90;;;;;;5111279;28;20034;-74
2022/12/15 03:46:13;;;;;;;28.90;11.90;;;-0.40;99.90;;;;;;5110887;28;20028;-74
2022/12/15 03:48:39;;;;;;;24.07;11.03;;;-0.40;99.90;;;;;;5110734;28;20034;-73
2022/12/15 03:51:04;;;;;;;27.17;11.90;;;-0.40;99.90;;;;;;5113205;28;20028;-81
2022/12/15 03:53:30;;;;;;;24.63;12.27;;;-0.40;99.90;;;;;;5114427;28;20028;-74
2022/12/15 03:55:55;;;;;;;28.23;12.03;;;-0.50;99.90;;;;;;5115141;28;20373;-74
2022/12/15 03:58:21;;;;;;;24.07;11.73;;;-0.40;99.90;;;;;;5115391;28;20503;-74
2022/12/15 04:00:47;;;;;;;25.27;11.33;;;-0.40;99.90;;;;;;5116194;28;20061;-73
2022/12/15 04:03:13;;;;;;;29.10;12.10;;;-0.40;99.90;;;;;;5115225;28;20480;-73
2022/12/15 04:05:39;;;;;;;23.67;11.87;;;-0.40;99.90;;;;;;5114521;28;20034;-73
2022/12/15 04:08:04;;;;;;;29.77;13.07;;;-0.40;99.90;;;;;;5114696;28;20036;-73
2022/12/15 04:10:32;;;;;;;28.00;12.60;;;-0.50;99.90;;;;;;5114891;28;20435;-73
2022/12/15 04:13:04;;;;;;;26.70;12.10;;;-0.50;99.90;;;;;;5114493;28;20457;-73
2022/12/15 04:15:30;;;;;;;27.45;12.07;;;-0.40;99.90;;;;;;5114178;28;20424;-73
2022/12/15 04:17:57;;;;;;;27.07;11.80;;;-0.50;99.90;;;;;;5115627;28;20044;-73
2022/12/15 04:20:22;;;;;;;26.67;12.10;;;-0.50;99.90;;;;;;5114066;28;20421;-73
2022/12/15 04:22:49;;;;;;;25.90;11.07;;;-0.50;99.90;;;;;;5114438;28;20043;-73
2022/12/15 05:34:15;;;;;;;26.17;11.43;;;-0.50;99.90;;;;;;5093016;28;20082;-75
2022/12/15 05:36:41;;;;;;;26.43;12.20;;;-0.60;99.90;;;;;;5094046;28;20465;-73
2022/12/15 05:39:06;;;;;;;31.93;12.90;;;-0.50;99.90;;;;;;5092505;28;20032;-73
2022/12/15 05:41:32;;;;;;;31.33;12.07;;;-0.60;99.90;;;;;;5091786;28;20677;-73
2022/12/15 05:43:58;;;;;;;27.63;12.23;;;-0.60;99.90;;;;;;5093527;28;20111;-74
2022/12/15 05:46:23;;;;;;;22.63;10.93;;;-0.50;99.90;;;;;;5091709;28;20074;-73
2022/12/15 05:48:49;;;;;;;27.50;12.03;;;-0.50;99.90;;;;;;5092534;28;20035;-73
2022/12/15 05:51:15;;;;;;;26.43;11.63;;;-0.50;99.90;;;;;;5093264;28;20024;-77
2022/12/15 05:53:41;;;;;;;30.47;13.10;;;-0.50;99.90;;;;;;5093516;28;20035;-73
2022/12/15 05:56:10;;;;;;;24.00;10.83;;;-0.50;99.90;;;;;;5093565;28;20024;-73
2022/12/15 05:58:37;;;;;;;25.97;12.20;;;-0.50;99.90;;;;;;5092673;28;20400;-73
2022/12/15 06:01:12;;;;;;;24.97;11.70;;;-0.50;99.90;;;;;;5092204;28;20020;-73
2022/12/15 06:03:39;;;;;;;27.70;12.50;;;-0.50;99.90;;;;;;5092909;28;20032;-74
2022/12/15 06:06:06;;;;;;;29.03;12.53;;;-0.50;99.90;;;;;;5092001;28;20024;-73
2022/12/15 06:08:37;;;;;;;30.33;13.23;;;-0.50;99.90;;;;;;5091553;28;20061;-73
2022/12/15 06:11:03;;;;;;;24.43;12.20;;;-0.50;99.90;;;;;;5092191;28;20427;-73
2022/12/15 06:13:31;;;;;;;25.50;11.83;;;-0.50;99.90;;;;;;5090745;28;20057;-73
2022/12/15 06:16:09;;;;;;;30.53;12.20;;;-0.50;99.90;;;;;;5092480;28;20416;-73
2022/12/15 06:18:38;;;;;;;30.83;11.87;;;-0.50;99.90;;;;;;5091407;28;20051;-73
2022/12/15 06:21:07;;;;;;;32.67;13.43;;;-0.50;99.90;;;;;;5092085;28;20114;-74
2022/12/15 06:23:33;;;;;;;27.57;11.63;;;-0.50;99.90;;;;;;5090795;28;20120;-74
2022/12/15 06:26:06;;;;;;;29.03;12.80;;;-0.50;99.90;;;;;;5091451;28;20052;-73
2022/12/15 06:28:32;;;;;;;28.57;12.03;;;-0.50;99.90;;;;;;5092009;28;20040;-73
2022/12/15 06:31:01;;;;;;;25.87;11.40;;;-0.50;99.90;;;;;;5094055;28;20372;-74
2022/12/15 06:33:28;;;;;;;27.70;11.70;;;-0.50;99.90;;;;;;5093984;28;20542;-74
2022/12/15 06:35:54;;;;;;;27.00;11.10;;;-0.50;99.90;;;;;;5092081;28;20024;-74
2022/12/15 06:38:19;;;;;;;29.83;13.30;;;-0.50;99.90;;;;;;5091168;28;20027;-74
2022/12/15 06:40:45;;;;;;;30.67;12.97;;;-0.50;99.90;;;;;;5093075;28;20020;-73
2022/12/15 06:43:10;;;;;;;30.37;13.00;;;-0.50;99.90;;;;;;5095682;28;20035;-73
2022/12/15 06:45:36;;;;;;;28.30;11.93;;;-0.50;99.90;;;;;;5093609;28;20690;-73
2022/12/15 06:48:02;;;;;;;32.57;13.37;;;-0.50;99.90;;;;;;5095162;28;20032;-74
2022/12/15 06:50:27;;;;;;;26.37;12.33;;;-0.50;99.90;;;;;;5093869;28;20028;-73
2022/12/15 06:52:53;;;;;;;29.17;12.53;;;-0.50;99.90;;;;;;5094490;28;20401;-73
2022/12/15 06:55:19;;;;;;;31.37;12.57;;;-0.50;99.90;;;;;;5093832;28;20028;-76
2022/12/15 06:57:47;;;;;;;27.70;13.10;;;-0.50;99.90;;;;;;5094617;28;20477;-73
2022/12/15 07:00:14;;;;;;;30.27;13.60;;;-0.50;99.90;;;;;;5095651;28;20441;-74
2022/12/15 07:02:41;;;;;;;30.23;13.13;;;-0.50;99.90;;;;;;5094408;28;20052;-73
2022/12/15 07:05:08;;;;;;;29.20;12.67;;;-0.50;99.90;;;;;;5095547;28;20025;-73
2022/12/15 07:07:33;;;;;;;30.93;13.17;;;-0.50;99.90;;;;;;5092629;28;20469;-73
2022/12/15 07:09:59;;;;;;;30.53;13.03;;;-0.50;99.90;;;;;;5093390;28;20027;-73
2022/12/15 07:12:24;;;;;;;30.03;12.70;;;-0.50;99.90;;;;;;5092402;28;20031;-74
2022/12/15 07:14:50;;;;;;;27.13;12.40;;;-0.50;99.90;;;;;;5094420;28;20032;-73
2022/12/15 07:17:15;;;;;;;30.07;12.57;;;-0.50;99.90;;;;;;5092887;28;20056;-73
2022/12/15 07:19:41;;;;;;;31.07;11.90;;;-0.60;99.90;;;;;;5092602;28;20028;-73
2022/12/15 07:22:07;;;;;;;30.47;13.83;;;-0.60;99.90;;;;;;5091764;28;20092;-74
2022/12/15 07:24:32;;;;;;;26.03;12.33;;;-0.60;99.90;;;;;;5090965;28;20021;-73
2022/12/15 07:26:58;;;;;;;28.10;13.10;;;-0.60;99.90;;;;;;5094680;28;20031;-73
2022/12/15 07:29:24;;;;;;;31.77;13.97;;;-0.60;99.90;;;;;;5094634;28;20035;-74
2022/12/15 07:31:49;;;;;;;29.97;13.47;;;-0.60;99.90;;;;;;5095431;28;20020;-73
2022/12/15 07:34:15;;;;;;;32.13;13.80;;;-0.60;99.90;;;;;;5095341;28;20028;-73
2022/12/15 07:36:40;;;;;;;27.13;12.80;;;-0.60;99.90;;;;;;5094774;28;20103;-73
2022/12/15 07:39:06;;;;;;;30.23;12.53;;;-0.70;99.90;;;;;;5096287;28;20036;-73
2022/12/15 07:41:32;;;;;;;31.23;13.37;;;-0.70;99.90;;;;;;5096959;28;20513;-73
2022/12/15 07:43:58;;;;;;;27.87;12.53;;;-0.70;99.90;;;;;;5094834;28;20032;-73
2022/12/15 07:46:24;;;;;;;27.80;13.13;;;-0.70;99.90;;;;;;5095841;28;20032;-75
2022/12/15 07:48:50;;;;;;;29.07;13.43;;;-0.70;99.90;;;;;;5095204;28;20377;-74
2022/12/15 07:51:19;;;;;;;27.17;11.90;;;-0.70;99.90;;;;;;5094840;28;20020;-74
2022/12/15 07:53:45;;;;;;;31.67;13.47;;;-0.70;99.90;;;;;;5094408;28;20097;-74
2022/12/15 07:56:10;;;;;;;27.60;11.93;;;-0.80;99.90;;;;;;5094826;28;20028;-74
2022/12/15 07:58:37;;;;;;;27.40;12.97;;;-0.70;99.90;;;;;;5093915;28;20046;-74
2022/12/15 08:01:09;;;;;;;28.67;13.33;;;-0.70;99.90;;;;;;5094372;28;20028;-73
2022/12/15 08:03:35;;;;;;;28.80;13.88;;;-0.70;99.90;;;;;;5095227;28;20534;-74
2022/12/15 08:06:19;;;;;;;30.93;13.80;;;-0.70;99.90;;;;;;5095479;28;20032;-73
2022/12/15 08:08:45;;;;;;;29.63;13.93;;;-0.70;99.90;;;;;;5093858;28;20073;-74
2022/12/15 08:11:13;;;;;;;29.80;13.47;;;-0.80;99.90;;;;;;5094417;28;20055;-74
2022/12/15 08:13:39;;;;;;;29.33;14.47;;;-0.80;99.90;;;;;;5095077;28;20472;-74
2022/12/15 08:16:05;;;;;;;33.97;14.17;;;-0.80;99.90;;;;;;5095393;28;20032;-74
2022/12/15 08:18:31;;;;;;;30.30;13.90;;;-0.80;99.90;;;;;;5093752;28;20055;-74
2022/12/15 08:21:07;;;;;;;29.93;13.43;;;-0.80;99.90;;;;;;5094529;28;20034;-74
2022/12/15 08:23:34;;;;;;;30.27;13.27;;;-0.80;99.90;;;;;;5093675;28;20020;-74
2022/12/15 08:26:04;;;;;;;28.53;13.00;;;-0.90;99.90;;;;;;5093859;28;20074;-74
2022/12/15 08:28:31;;;;;;;29.13;12.47;;;-0.90;99.90;;;;;;5093427;28;20036;-74
2022/12/15 08:31:05;;;;;;;31.47;12.90;;;-0.90;99.90;;;;;;5094918;28;20467;-74
2022/12/15 08:33:31;;;;;;;29.70;12.67;;;-0.90;99.90;;;;;;5094565;28;20115;-74
2022/12/15 08:36:03;;;;;;;27.90;13.97;;;-0.90;99.90;;;;;;5093826;28;20028;-74
2022/12/15 08:38:29;;;;;;;;;;;-0.90;99.90;;;;;;5092514;28;20031;-74
2022/12/15 08:40:55;;;;;;;29.40;11.70;;;-0.90;99.90;;;;;;5093674;28;19994;-74
2022/12/15 08:43:22;;;;;;;31.43;13.27;;;-0.90;99.90;;;;;;5093412;28;20028;-74
2022/12/15 08:45:48;;;;;;;30.03;12.73;;;-1.00;99.90;;;;;;5092980;28;20032;-74
2022/12/15 08:48:14;;;;;;;31.63;13.73;;;-1.00;99.90;;;;;;5094816;28;20111;-74
2022/12/15 08:50:44;;;;;;;32.50;14.20;;;-1.00;99.90;;;;;;5093896;28;20024;-74
2022/12/15 08:53:11;;;;;;;30.20;13.47;;;-1.00;99.90;;;;;;5093535;28;20024;-74
2022/12/15 08:55:36;;;;;;;28.67;13.53;;;-1.00;99.90;;;;;;5094237;28;20105;-74
2022/12/15 08:58:02;;;;;;;27.10;13.60;;;-1.00;99.90;;;;;;5095039;28;20062;-74
2022/12/15 09:00:28;;;;;;;28.57;13.33;;;-1.00;99.90;;;;;;5092732;28;20028;-74
2022/12/15 09:02:53;;;;;;;29.93;14.40;;;-1.00;99.90;;;;;;5094238;28;20502;-74
2022/12/15 09:05:19;;;;;;;30.27;13.50;;;-1.00;99.90;;;;;;5093438;28;20477;-74
2022/12/15 09:07:45;;;;;;;30.20;14.07;;;-1.00;99.90;;;;;;5093850;28;20028;-74
2022/12/15 09:10:10;;;;;;;28.33;13.30;;;-1.00;99.90;;;;;;5093147;28;20484;-74
2022/12/15 09:12:36;;;;;;;30.53;14.07;;;-1.10;99.90;;;;;;5092650;28;20097;-74
2022/12/15 09:15:02;;;;;;;29.03;12.10;;;-1.00;99.90;;;;;;5092719;28;20027;-74
2022/12/15 09:17:27;;;;;;;29.33;13.27;;;-1.10;99.90;;;;;;5093240;28;20048;-74
2022/12/15 09:19:53;;;;;;;33.33;15.00;;;-1.10;99.90;;;;;;5093069;28;20028;-74
2022/12/15 09:22:19;;;;;;;36.00;14.80;;;-1.00;99.90;;;;;;5093020;28;20470;-74
2022/12/15 09:24:45;;;;;;;35.37;14.97;;;-1.00;99.90;;;;;;5092420;28;20119;-74
2022/12/15 09:27:11;;;;;;;31.33;13.40;;;-1.00;99.90;;;;;;5092831;28;20027;-74
2022/12/15 09:29:36;;;;;;;32.33;12.97;;;-1.00;99.90;;;;;;5092249;28;20032;-74
2022/12/15 09:32:04;;;;;;;30.47;13.40;;;-1.00;99.90;;;;;;5096587;28;20023;-74
2022/12/15 09:34:29;;;;;;;30.17;13.97;;;-1.00;99.90;;;;;;5114482;28;20024;-75
2022/12/15 09:36:55;;;;;;;28.67;13.67;;;-1.00;99.90;;;;;;5109630;28;20536;-74
2022/12/15 09:39:21;;;;;;;29.87;12.77;;;-1.00;99.90;;;;;;5096917;27;20107;-74
2022/12/15 09:41:54;;;;;;;31.47;13.63;;;-0.90;99.90;;;;;;5111706;28;20020;-74
2022/12/15 09:44:23;;;;;;;30.23;13.00;;;-0.90;99.90;;;;;;5103413;28;20076;-73
2022/12/15 09:47:07;;;;;;;27.80;12.83;;;-1.00;99.90;;;;;;5105704;28;20060;-73
2022/12/15 09:49:51;;;;;;;29.97;13.97;;;-1.00;99.90;;;;;;5109682;28;20046;-73
2022/12/15 09:52:22;;;;;;;31.10;13.30;;;-0.90;99.90;;;;;;5093221;28;20082;-73
2022/12/15 09:54:48;;;;;;;32.70;14.07;;;-0.90;99.90;;;;;;5094291;28;20028;-74
2022/12/15 09:57:25;;;;;;;31.57;14.13;;;-0.90;99.90;;;;;;5091757;28;20468;-74
2022/12/15 10:00:09;;;;;;;30.40;13.93;;;-0.80;99.90;;;;;;5096100;28;20456;-76
2022/12/15 10:03:00;;;;;;;30.77;13.20;;;-0.80;99.90;;;;;;5092494;28;20028;-74
2022/12/15 10:05:52;;;;;;;31.20;13.73;;;-0.70;99.90;;;;;;5108150;28;20019;-74
2022/12/15 10:08:19;;;;;;;29.05;11.20;;;-0.70;99.90;;;;;;5099984;28;20039;-74
2022/12/15 10:10:50;;;;;;;30.73;14.07;;;-0.70;99.90;;;;;;5100813;28;20415;-73
2022/12/15 10:13:30;;;;;;;27.43;13.23;;;-0.60;99.90;;;;;;5109143;28;20036;-74
2022/12/15 10:16:04;;;;;;;32.43;14.60;;;-0.50;99.90;;;;;;5096621;28;20034;-75
2022/12/15 10:18:52;;;;;;;35.70;13.40;;;-0.50;99.90;;;;;;5102779;28;20115;-74
2022/12/15 10:21:17;;;;;;;29.90;13.27;;;-0.40;99.90;;;;;;5108051;28;20472;-73
2022/12/15 10:23:43;;;;;;;30.10;13.23;;;-0.30;99.90;;;;;;5094305;28;20020;-74
2022/12/15 10:26:24;;;;;;;29.30;13.67;;;-0.30;99.90;;;;;;5112430;28;20372;-74
2022/12/15 10:29:07;;;;;;;31.10;13.90;;;-0.30;99.90;;;;;;5098080;28;20123;-74
2022/12/15 10:31:57;;;;;;;29.53;13.73;;;-0.20;99.90;;;;;;5103378;28;20024;-74
2022/12/15 10:34:32;;;;;;;30.73;14.17;;;-0.20;99.90;;;;;;5101330;28;20465;-74
2022/12/15 10:36:59;;;;;;;32.70;13.70;;;-0.20;99.90;;;;;;5113042;28;20058;-74
2022/12/15 10:39:37;;;;;;;29.27;13.60;;;-0.10;99.90;;;;;;5094774;28;20481;-74
2022/12/15 10:42:24;;;;;;;27.47;13.83;;;-0.10;99.90;;;;;;5105456;28;20425;-74
2022/12/15 10:44:54;;;;;;;32.53;13.93;;;0.00;99.90;;;;;;5103190;28;20055;-74
2022/12/15 10:47:28;;;;;;;34.07;14.20;;;0.10;99.90;;;;;;5096117;28;20103;-75
2022/12/15 10:50:14;;;;;;;33.63;14.90;;;0.20;99.90;;;;;;5106866;28;20441;-74
2022/12/15 10:52:40;;;;;;;32.50;14.20;;;0.20;99.90;;;;;;5101858;28;20027;-74
2022/12/15 10:55:34;;;;;;;34.50;14.43;;;0.30;99.90;;;;;;5096521;28;20080;-74
2022/12/15 10:58:02;;;;;;;33.27;12.97;;;0.30;99.90;;;;;;5096663;28;20483;-75
2022/12/15 11:00:32;;;;;;;33.27;14.63;;;0.30;99.90;;;;;;5107483;28;20357;-75
2022/12/15 11:02:58;;;;;;;34.13;14.30;;;0.30;99.90;;;;;;5116617;28;20034;-74
2022/12/15 11:05:24;;;;;;;31.80;14.70;;;0.30;99.90;;;;;;5098622;28;20028;-74
2022/12/15 11:08:14;;;;;;;33.47;13.80;;;0.30;99.90;;;;;;5110830;28;20073;-74
2022/12/15 11:13:33;;;;;;;34.07;14.57;;;0.30;99.90;;;;;;5097312;28;20085;-72
2022/12/15 11:16:18;;;;;;;40.80;14.77;;;0.40;99.90;;;;;;5100001;28;20426;-74
2022/12/15 11:18:54;;;;;;;31.30;13.90;;;0.50;99.90;;;;;;5102924;28;20127;-73
2022/12/15 11:21:25;;;;;;;32.43;14.00;;;0.50;99.90;;;;;;5113360;28;20035;-74
2022/12/15 11:24:13;;;;;;;30.77;12.90;;;0.60;99.90;;;;;;5100272;28;20364;-73
2022/12/15 11:26:51;;;;;;;30.10;13.57;;;0.60;99.90;;;;;;5115248;27;20027;-72
2022/12/15 11:29:17;;;;;;;29.53;13.63;;;0.60;99.90;;;;;;5099604;28;20064;-73
2022/12/15 11:31:44;;;;;;;29.53;13.97;;;0.70;99.90;;;;;;5115459;28;20055;-73
2022/12/15 11:34:24;;;;;;;31.53;13.57;;;0.70;99.90;;;;;;5107478;28;20023;-73
2022/12/15 11:37:06;;;;;;;28.73;13.70;;;0.70;99.90;;;;;;5107119;28;20124;-73
2022/12/15 11:39:38;;;;;;;;;;;0.80;99.90;;;;;;5098175;28;20039;-73
2022/12/15 11:42:08;;;;;;;28.92;11.77;;;0.80;99.90;;;;;;5108503;28;19907;-73
2022/12/15 11:45:01;;;;;;;24.50;12.07;;;0.80;99.90;;;;;;5105335;28;20032;-74
2022/12/15 11:47:49;;;;;;;26.47;12.07;;;0.90;99.90;;;;;;5098017;28;20040;-73
2022/12/15 11:50:32;;;;;;;29.57;13.13;;;0.90;99.90;;;;;;5107087;28;20047;-73
2022/12/15 11:53:07;;;;;;;26.10;12.17;;;0.90;99.90;;;;;;5108044;28;20030;-73
2022/12/15 11:55:56;;;;;;;29.90;13.13;;;0.80;99.90;;;;;;5095410;28;20034;-73
2022/12/15 11:58:31;;;;;;;30.57;13.63;;;0.90;99.90;;;;;;5104322;28;20077;-73
2022/12/15 12:00:59;;;;;;;28.53;13.10;;;0.80;99.90;;;;;;5109968;28;20023;-74
2022/12/15 12:03:42;;;;;;;32.10;14.03;;;0.80;99.90;;;;;;5113671;28;20145;-73
2022/12/15 12:06:16;;;;;;;35.17;15.13;;;0.80;99.90;;;;;;5100296;28;20027;-73
2022/12/15 12:09:18;;;;;;;35.77;15.33;;;0.80;99.90;;;;;;5103750;28;20031;-75
2022/12/15 12:12:15;;;;;;;32.80;14.55;;;0.80;99.90;;;;;;5111693;28;20143;-75
2022/12/15 12:14:46;;;;;;;34.83;13.97;;;0.80;99.90;;;;;;5106280;28;20023;-73
2022/12/15 12:17:40;;;;;;;35.28;15.57;;;0.70;99.90;;;;;;5098263;28;20164;-72
2022/12/15 12:20:44;;;;;;;36.27;15.10;;;0.70;99.90;;;;;;5100337;28;20031;-75
2022/12/15 12:23:20;;;;;;;37.30;15.97;;;0.70;99.90;;;;;;5074408;28;20044;-76
2022/12/15 12:26:13;;;;;;;40.70;16.23;;;0.70;99.90;;;;;;5095341;28;20082;-72
2022/12/15 12:28:47;;;;;;;;;;;0.60;99.90;;;;;;5105409;28;20480;-73
2022/12/15 12:31:41;;;;;;;33.17;15.93;;;0.60;99.90;;;;;;5113442;28;19969;-73
2022/12/15 12:34:21;;;;;;;38.97;15.33;;;0.60;99.90;;;;;;5100087;28;20020;-73
2022/12/15 12:36:48;;;;;;;44.07;17.60;;;0.60;99.90;;;;;;5102779;28;20473;-72
2022/12/15 12:39:21;;;;;;;48.07;17.17;;;0.50;99.90;;;;;;5093460;28;20040;-73
2022/12/15 12:41:54;;;;;;;36.80;16.77;;;0.50;99.90;;;;;;5097981;28;20023;-75
2022/12/15 12:44:19;;;;;;;43.23;16.93;;;0.40;99.90;;;;;;5113011;28;20043;-73
2022/12/15 12:46:50;;;;;;;42.13;17.43;;;0.40;99.90;;;;;;5099068;28;20031;-73
2022/12/15 12:49:36;;;;;;;41.50;16.77;;;0.40;99.90;;;;;;5109196;28;20034;-73
2022/12/15 12:52:05;;;;;;;35.80;16.03;;;0.40;99.90;;;;;;5098923;28;20028;-74
2022/12/15 12:54:41;;;;;;;38.53;16.87;;;0.40;99.90;;;;;;5103081;28;20028;-73
2022/12/15 12:57:10;;;;;;;42.23;16.90;;;0.40;99.90;;;;;;5108054;28;20028;-75
2022/12/15 13:00:07;;;;;;;35.83;16.43;;;0.40;99.90;;;;;;5095930;28;20085;-73
2022/12/15 13:02:36;;;;;;;36.87;16.93;;;0.50;99.90;;;;;;5102820;28;20389;-75
2022/12/15 13:05:31;;;;;;;38.63;16.53;;;0.40;99.90;;;;;;5098857;28;20461;-73
2022/12/15 13:08:06;;;;;;;37.07;16.17;;;0.50;99.90;;;;;;5098049;28;20022;-73
2022/12/15 13:10:44;;;;;;;36.10;16.40;;;0.50;99.90;;;;;;5102499;28;20028;-73
2022/12/15 13:13:40;;;;;;;33.77;16.20;;;0.50;99.90;;;;;;5108151;28;20023;-73
2022/12/15 13:16:25;;;;;;;35.60;15.53;;;0.50;99.90;;;;;;5098883;28;20073;-75
2022/12/15 13:18:56;;;;;;;36.20;16.50;;;0.50;99.90;;;;;;5101353;28;20085;-75
2022/12/15 13:21:43;;;;;;;37.33;17.05;;;0.50;99.90;;;;;;5109347;28;20032;-73
2022/12/15 13:24:40;;;;;;;34.90;15.93;;;0.50;99.90;;;;;;5098797;28;20057;-73
2022/12/15 13:27:08;;;;;;;36.47;16.07;;;0.60;99.90;;;;;;5111861;28;20094;-73
2022/12/15 13:29:36;;;;;;;33.90;16.40;;;0.70;99.90;;;;;;5096635;28;20036;-73
2022/12/15 13:32:02;;;;;;;33.23;16.27;;;0.60;99.90;;;;;;5113577;28;20103;-73
2022/12/15 13:34:37;;;;;;;35.93;16.40;;;0.70;99.90;;;;;;5102946;28;20069;-75
2022/12/15 13:37:25;;;;;;;38.27;17.17;;;0.70;99.90;;;;;;5106922;28;20031;-73
2022/12/15 13:39:54;;;;;;;37.10;17.03;;;0.70;99.90;;;;;;5096068;28;20027;-73
2022/12/15 13:42:27;;;;;;;32.27;16.37;;;0.70;99.90;;;;;;5103800;28;20037;-73
2022/12/15 13:45:04;;;;;;;37.07;16.83;;;0.70;99.90;;;;;;5104533;28;20035;-75
2022/12/15 13:47:30;;;;;;;39.17;16.83;;;0.70;99.90;;;;;;5095332;28;20070;-79
2022/12/15 13:50:10;;;;;;;38.70;16.77;;;0.70;99.90;;;;;;5108452;28;20465;-75
2022/12/15 13:52:50;;;;;;;40.40;17.30;;;0.70;99.90;;;;;;5103339;28;20076;-75
2022/12/15 13:55:20;;;;;;;37.93;17.83;;;0.70;99.90;;;;;;5097389;28;20024;-75
2022/12/15 13:58:00;;;;;;;38.80;17.30;;;0.60;99.90;;;;;;5092716;28;20042;-75
2022/12/15 14:00:25;;;;;;;41.90;18.17;;;0.50;99.90;;;;;;5101108;28;20023;-75
2022/12/15 14:03:06;;;;;;;40.70;18.93;;;0.50;99.90;;;;;;5112894;28;20034;-75
2022/12/15 14:05:32;;;;;;;45.57;18.67;;;0.40;99.90;;;;;;5095024;28;20054;-73
2022/12/15 14:08:01;;;;;;;46.73;18.27;;;0.40;99.90;;;;;;5106685;28;20044;-72
2022/12/15 14:10:46;;;;;;;46.63;20.57;;;0.30;99.90;;;;;;5101291;28;20028;-72
2022/12/15 14:13:16;;;;;;;52.27;20.00;;;0.30;99.90;;;;;;5095902;28;20111;-72
2022/12/15 14:15:45;;;;;;;49.30;20.30;;;0.20;99.90;;;;;;5109377;28;20473;-73
2022/12/15 14:18:33;;;;;;;49.03;20.07;;;0.20;99.90;;;;;;5098151;28;20134;-73
2022/12/15 14:21:00;;;;;;;45.43;18.90;;;0.10;99.90;;;;;;5097895;28;20027;-73
2022/12/15 14:23:29;;;;;;;50.83;21.40;;;0.10;99.90;;;;;;5108322;28;20567;-73
2022/12/15 14:26:02;;;;;;;51.83;20.60;;;0.00;99.90;;;;;;5092016;28;20020;-73
2022/12/15 14:28:31;;;;;;;49.53;20.33;;;0.00;99.90;;;;;;5102234;28;20093;-73
2022/12/15 14:31:04;;;;;;;52.27;20.53;;;-0.10;99.90;;;;;;5112813;28;20062;-74
2022/12/15 14:33:35;;;;;;;46.60;18.67;;;-0.10;99.90;;;;;;5110306;28;20020;-79
2022/12/15 14:36:04;;;;;;;43.77;18.33;;;-0.20;99.90;;;;;;5096384;28;20030;-75
2022/12/15 14:38:39;;;;;;;43.23;17.90;;;-0.30;99.90;;;;;;5111583;28;20122;-75
2022/12/15 14:41:06;;;;;;;44.17;18.70;;;-0.30;99.90;;;;;;5096741;28;20357;-73
2022/12/15 14:43:35;;;;;;;42.77;17.00;;;-0.40;99.90;;;;;;5107460;28;20073;-75
2022/12/15 14:46:13;;;;;;;45.87;18.33;;;-0.40;99.90;;;;;;5096745;28;20020;-76
2022/12/15 14:48:43;;;;;;;48.40;19.13;;;-0.50;99.90;;;;;;5099797;28;20028;-74
2022/12/15 14:51:12;;;;;;;49.53;18.67;;;-0.50;99.90;;;;;;5106718;28;20027;-74
2022/12/15 14:53:40;;;;;;;44.07;17.80;;;-0.60;99.90;;;;;;5108579;28;20169;-74
2022/12/15 14:56:29;;;;;;;43.50;19.50;;;-0.60;99.90;;;;;;5092059;28;20024;-75
2022/12/15 14:58:59;;;;;;;49.17;19.63;;;-0.70;99.90;;;;;;5104338;28;20368;-73
2022/12/15 15:01:33;;;;;;;46.87;18.77;;;-0.70;99.90;;;;;;5106525;28;20472;-75
2022/12/15 15:04:05;;;;;;;49.83;20.47;;;-0.70;99.90;;;;;;5106038;28;20024;-76
2022/12/15 15:06:38;;;;;;;;;;;-0.80;99.90;;;;;;5091128;28;20488;-78
2022/12/15 15:09:20;;;;;;;52.97;19.47;;;-0.80;99.90;;;;;;5106861;28;19956;-75
2022/12/15 15:11:47;;;;;;;33.22;14.00;;;-0.80;99.90;;;;;;5095500;28;20055;-74
2022/12/15 15:14:25;;;;;;;47.10;18.90;;;-0.90;99.90;;;;;;5103604;28;20043;-74
2022/12/15 15:17:35;;;;;;;53.57;21.03;;;-0.90;99.90;;;;;;5103201;28;20532;-74